sensor_id;sensor_type;location;lat;lon;timestamp;temperature;humidity
3528;DHT22;1778;47.966;7.854;2023-02-01T00:00:35;6.10;99.90
3528;DHT22;1778;47.966;7.854;2023-02-01T00:01:37;6.20;99.90
3528;DHT22;1778;47.966;7.854;2023-02-01T00:02:38;6.20;99.90
3528;DHT22;1778;47.966;7.854;2023-02-01T00:03:41;6.20;99.90
3528;DHT22;1778;47.966;7.854;2023-02-01T00:04:43;6.20;99.90
3528;DHT22;1778;47.966;7.854;2023-02-01T00:05:55;6.20;99.90
3528;DHT22;1778;47.966;7.854;2023-02-01T00:06:57;6.20;99.90
3528;DHT22;1778;47.966;7.854;2023-02-01T00:07:58;6.10;99.90
3528;DHT22;1778;47.966;7.854;2023-02-01T00:09:00;6.10;99.90
3528;DHT22;1778;47.966;7.854;2023-02-01T00:10:02;6.20;99.90
3528;DHT22;1778;47.966;7.854;2023-02-01T00:11:09;6.10;99.90
3528;DHT22;1778;47.966;7.854;2023-02-01T00:12:11;6.20;99.90
3528;DHT22;1778;47.966;7.854;2023-02-01T00:13:13;6.20;99.90
3528;DHT22;1778;47.966;7.854;2023-02-01T00:14:14;6.20;99.90
3528;DHT22;1778;47.966;7.854;2023-02-01T00:15:16;6.10;99.90
3528;DHT22;1778;47.966;7.854;2023-02-01T00:16:20;6.20;99.90
3528;DHT22;1778;47.966;7.854;2023-02-01T00:17:22;6.20;99.90
3528;DHT22;1778;47.966;7.854;2023-02-01T00:18:23;6.20;99.90
3528;DHT22;1778;47.966;7.854;2023-02-01T00:19:25;6.20;99.90
3528;DHT22;1778;47.966;7.854;2023-02-01T00:20:26;6.20;99.90
3528;DHT22;1778;47.966;7.854;2023-02-01T00:21:28;6.20;99.90
3528;DHT22;1778;47.966;7.854;2023-02-01T00:22:30;6.20;99.90
3528;DHT22;1778;47.966;7.854;2023-02-01T00:23:33;6.20;99.90
3528;DHT22;1778;47.966;7.854;2023-02-01T00:24:35;6.20;99.90
3528;DHT22;1778;47.966;7.854;2023-02-01T00:25:36;6.20;99.90
3528;DHT22;1778;47.966;7.854;2023-02-01T00:26:40;6.10;99.90
3528;DHT22;1778;47.966;7.854;2023-02-01T00:27:42;6.20;99.90
3528;DHT22;1778;47.966;7.854;2023-02-01T00:28:44;6.20;99.90
3528;DHT22;1778;47.966;7.854;2023-02-01T00:29:46;6.20;99.90
3528;DHT22;1778;47.966;7.854;2023-02-01T00:30:58;6.20;99.90
3528;DHT22;1778;47.966;7.854;2023-02-01T00:32:00;6.20;99.90
3528;DHT22;1778;47.966;7.854;2023-02-01T00:33:02;6.10;99.90
3528;DHT22;1778;47.966;7.854;2023-02-01T00:34:03;6.10;99.90
3528;DHT22;1778;47.966;7.854;2023-02-01T00:35:05;6.10;99.90
3528;DHT22;1778;47.966;7.854;2023-02-01T00:36:10;6.20;99.90
3528;DHT22;1778;47.966;7.854;2023-02-01T00:37:12;6.10;99.90
3528;DHT22;1778;47.966;7.854;2023-02-01T00:38:13;6.10;99.90
3528;DHT22;1778;47.966;7.854;2023-02-01T00:39:15;6.10;99.90
3528;DHT22;1778;47.966;7.854;2023-02-01T00:40:17;6.10;99.90
3528;DHT22;1778;47.966;7.854;2023-02-01T00:41:21;6.10;99.90
3528;DHT22;1778;47.966;7.854;2023-02-01T00:42:23;6.10;99.90
3528;DHT22;1778;47.966;7.854;2023-02-01T00:43:24;6.00;99.90
3528;DHT22;1778;47.966;7.854;2023-02-01T00:44:26;6.10;99.90
3528;DHT22;1778;47.966;7.854;2023-02-01T00:45:28;6.00;99.90
3528;DHT22;1778;47.966;7.854;2023-02-01T00:46:30;6.00;99.90
3528;DHT22;1778;47.966;7.854;2023-02-01T00:47:31;6.00;99.90
3528;DHT22;1778;47.966;7.854;2023-02-01T00:48:33;6.10;99.90
3528;DHT22;1778;47.966;7.854;2023-02-01T00:49:35;6.10;99.90
3528;DHT22;1778;47.966;7.854;2023-02-01T00:50:41;6.10;99.90
3528;DHT22;1778;47.966;7.854;2023-02-01T00:51:43;6.10;99.90
3528;DHT22;1778;47.966;7.854;2023-02-01T00:52:45;6.00;99.90
3528;DHT22;1778;47.966;7.854;2023-02-01T00:53:47;6.00;99.90
3528;DHT22;1778;47.966;7.854;2023-02-01T00:54:48;6.10;99.90
3528;DHT22;1778;47.966;7.854;2023-02-01T00:55:50;6.00;99.90
3528;DHT22;1778;47.966;7.854;2023-02-01T00:56:51;6.00;99.90
3528;DHT22;1778;47.966;7.854;2023-02-01T00:57:53;6.10;99.90
3528;DHT22;1778;47.966;7.854;2023-02-01T00:58:55;6.10;99.90
3528;DHT22;1778;47.966;7.854;2023-02-01T00:59:57;6.10;99.90
3528;DHT22;1778;47.966;7.854;2023-02-01T01:01:11;6.10;99.90
3528;DHT22;1778;47.966;7.854;2023-02-01T01:02:13;6.10;99.90
3528;DHT22;1778;47.966;7.854;2023-02-01T01:03:15;6.10;99.90
3528;DHT22;1778;47.966;7.854;2023-02-01T01:04:20;6.10;99.90
3528;DHT22;1778;47.966;7.854;2023-02-01T01:05:23;6.10;99.90
3528;DHT22;1778;47.966;7.854;2023-02-01T01:06:30;6.10;99.90
3528;DHT22;1778;47.966;7.854;2023-02-01T01:07:32;6.10;99.90
3528;DHT22;1778;47.966;7.854;2023-02-01T01:08:34;6.10;99.90
3528;DHT22;1778;47.966;7.854;2023-02-01T01:09:35;6.10;99.90
3528;DHT22;1778;47.966;7.854;2023-02-01T01:10:37;6.10;99.90
3528;DHT22;1778;47.966;7.854;2023-02-01T01:11:39;6.10;99.90
3528;DHT22;1778;47.966;7.854;2023-02-01T01:12:41;6.10;99.90
3528;DHT22;1778;47.966;7.854;2023-02-01T01:13:45;6.10;99.90
3528;DHT22;1778;47.966;7.854;2023-02-01T01:14:47;6.10;99.90
3528;DHT22;1778;47.966;7.854;2023-02-01T01:15:49;6.10;99.90
3528;DHT22;1778;47.966;7.854;2023-02-01T01:16:50;6.20;99.90
3528;DHT22;1778;47.966;7.854;2023-02-01T01:17:52;6.10;99.90
3528;DHT22;1778;47.966;7.854;2023-02-01T01:18:54;6.10;99.90
3528;DHT22;1778;47.966;7.854;2023-02-01T01:19:56;6.10;99.90
3528;DHT22;1778;47.966;7.854;2023-02-01T01:21:00;6.20;99.90
3528;DHT22;1778;47.966;7.854;2023-02-01T01:22:01;6.10;99.90
3528;DHT22;1778;47.966;7.854;2023-02-01T01:23:04;6.10;99.90
3528;DHT22;1778;47.966;7.854;2023-02-01T01:24:05;6.00;99.90
3528;DHT22;1778;47.966;7.854;2023-02-01T01:25:07;6.10;99.90
3528;DHT22;1778;47.966;7.854;2023-02-01T01:26:17;6.10;99.90
3528;DHT22;1778;47.966;7.854;2023-02-01T01:27:19;6.00;99.90
3528;DHT22;1778;47.966;7.854;2023-02-01T01:28:24;6.10;99.90
3528;DHT22;1778;47.966;7.854;2023-02-01T01:29:26;6.10;99.90
3528;DHT22;1778;47.966;7.854;2023-02-01T01:30:27;6.10;99.90
3528;DHT22;1778;47.966;7.854;2023-02-01T01:31:29;6.10;99.90
3528;DHT22;1778;47.966;7.854;2023-02-01T01:32:31;6.00;99.90
3528;DHT22;1778;47.966;7.854;2023-02-01T01:33:33;6.00;99.90
3528;DHT22;1778;47.966;7.854;2023-02-01T01:34:34;6.00;99.90
3528;DHT22;1778;47.966;7.854;2023-02-01T01:35:36;6.00;99.90
3528;DHT22;1778;47.966;7.854;2023-02-01T01:36:37;6.00;99.90
3528;DHT22;1778;47.966;7.854;2023-02-01T01:37:39;6.00;99.90
3528;DHT22;1778;47.966;7.854;2023-02-01T01:38:41;5.90;99.90
3528;DHT22;1778;47.966;7.854;2023-02-01T01:39:43;6.00;99.90
3528;DHT22;1778;47.966;7.854;2023-02-01T01:40:46;6.00;99.90
3528;DHT22;1778;47.966;7.854;2023-02-01T01:41:47;6.00;99.90
3528;DHT22;1778;47.966;7.854;2023-02-01T01:42:54;6.00;99.90
3528;DHT22;1778;47.966;7.854;2023-02-01T01:43:59;5.90;99.90
3528;DHT22;1778;47.966;7.854;2023-02-01T01:45:06;6.00;99.90
3528;DHT22;1778;47.966;7.854;2023-02-01T01:46:08;6.00;99.90
3528;DHT22;1778;47.966;7.854;2023-02-01T01:47:09;5.90;99.90
3528;DHT22;1778;47.966;7.854;2023-02-01T01:48:14;5.90;99.90
3528;DHT22;1778;47.966;7.854;2023-02-01T01:49:21;5.90;99.90
3528;DHT22;1778;47.966;7.854;2023-02-01T01:50:30;5.90;99.90
3528;DHT22;1778;47.966;7.854;2023-02-01T01:51:36;5.90;99.90
3528;DHT22;1778;47.966;7.854;2023-02-01T01:52:41;5.90;99.90
3528;DHT22;1778;47.966;7.854;2023-02-01T01:53:48;5.90;99.90
3528;DHT22;1778;47.966;7.854;2023-02-01T01:54:52;5.80;99.90
3528;DHT22;1778;47.966;7.854;2023-02-01T01:55:56;5.80;99.90
3528;DHT22;1778;47.966;7.854;2023-02-01T01:57:03;5.80;99.90
3528;DHT22;1778;47.966;7.854;2023-02-01T01:58:09;5.80;99.90
3528;DHT22;1778;47.966;7.854;2023-02-01T01:59:11;5.90;99.90
3528;DHT22;1778;47.966;7.854;2023-02-01T02:00:16;5.90;99.90
3528;DHT22;1778;47.966;7.854;2023-02-01T02:01:19;5.90;99.90
3528;DHT22;1778;47.966;7.854;2023-02-01T02:02:20;5.80;99.90
3528;DHT22;1778;47.966;7.854;2023-02-01T02:03:28;5.90;99.90
3528;DHT22;1778;47.966;7.854;2023-02-01T02:04:35;5.90;99.90
3528;DHT22;1778;47.966;7.854;2023-02-01T02:05:37;6.00;99.90
3528;DHT22;1778;47.966;7.854;2023-02-01T02:06:59;5.90;99.90
3528;DHT22;1778;47.966;7.854;2023-02-01T02:08:02;5.90;99.90
3528;DHT22;1778;47.966;7.854;2023-02-01T02:09:04;5.90;99.90
3528;DHT22;1778;47.966;7.854;2023-02-01T02:10:09;6.00;99.90
3528;DHT22;1778;47.966;7.854;2023-02-01T02:11:16;6.00;99.90
3528;DHT22;1778;47.966;7.854;2023-02-01T02:12:18;6.00;99.90
3528;DHT22;1778;47.966;7.854;2023-02-01T02:13:20;5.90;99.90
3528;DHT22;1778;47.966;7.854;2023-02-01T02:14:23;5.90;99.90
3528;DHT22;1778;47.966;7.854;2023-02-01T02:15:25;5.90;99.90
3528;DHT22;1778;47.966;7.854;2023-02-01T02:18:23;5.90;99.90
3528;DHT22;1778;47.966;7.854;2023-02-01T02:21:10;5.90;99.90
3528;DHT22;1778;47.966;7.854;2023-02-01T02:24:43;5.90;99.90
3528;DHT22;1778;47.966;7.854;2023-02-01T02:28:54;5.80;99.90
3528;DHT22;1778;47.966;7.854;2023-02-01T02:33:22;5.90;99.90
3528;DHT22;1778;47.966;7.854;2023-02-01T02:35:19;5.90;99.90
3528;DHT22;1778;47.966;7.854;2023-02-01T02:36:19;5.90;99.90
3528;DHT22;1778;47.966;7.854;2023-02-01T02:39:23;5.80;99.90
3528;DHT22;1778;47.966;7.854;2023-02-01T02:40:39;5.80;99.90
3528;DHT22;1778;47.966;7.854;2023-02-01T02:42:02;5.80;99.90
3528;DHT22;1778;47.966;7.854;2023-02-01T02:45:07;5.80;99.90
3528;DHT22;1778;47.966;7.854;2023-02-01T02:46:36;5.70;99.90
3528;DHT22;1778;47.966;7.854;2023-02-01T02:48:18;5.70;99.90
3528;DHT22;1778;47.966;7.854;2023-02-01T02:49:26;5.80;99.90
3528;DHT22;1778;47.966;7.854;2023-02-01T02:50:59;5.70;99.90
3528;DHT22;1778;47.966;7.854;2023-02-01T02:52:18;5.80;99.90
3528;DHT22;1778;47.966;7.854;2023-02-01T02:53:52;5.80;99.90
3528;DHT22;1778;47.966;7.854;2023-02-01T02:55:18;5.90;99.90
3528;DHT22;1778;47.966;7.854;2023-02-01T02:56:23;5.80;99.90
3528;DHT22;1778;47.966;7.854;2023-02-01T02:57:46;5.80;99.90
3528;DHT22;1778;47.966;7.854;2023-02-01T02:59:08;5.80;99.90
3528;DHT22;1778;47.966;7.854;2023-02-01T03:00:31;5.80;99.90
3528;DHT22;1778;47.966;7.854;2023-02-01T03:01:53;5.70;99.90
3528;DHT22;1778;47.966;7.854;2023-02-01T03:03:14;5.80;99.90
3528;DHT22;1778;47.966;7.854;2023-02-01T03:04:34;5.80;99.90
3528;DHT22;1778;47.966;7.854;2023-02-01T03:05:40;5.80;99.90
3528;DHT22;1778;47.966;7.854;2023-02-01T03:06:42;5.90;99.90
3528;DHT22;1778;47.966;7.854;2023-02-01T03:08:45;5.90;99.90
3528;DHT22;1778;47.966;7.854;2023-02-01T03:09:47;5.90;99.90
3528;DHT22;1778;47.966;7.854;2023-02-01T03:11:01;5.90;99.90
3528;DHT22;1778;47.966;7.854;2023-02-01T03:12:09;5.90;99.90
3528;DHT22;1778;47.966;7.854;2023-02-01T03:13:57;5.90;99.90
3528;DHT22;1778;47.966;7.854;2023-02-01T03:15:10;5.90;99.90
3528;DHT22;1778;47.966;7.854;2023-02-01T03:17:29;5.90;99.90
3528;DHT22;1778;47.966;7.854;2023-02-01T03:18:44;5.90;99.90
3528;DHT22;1778;47.966;7.854;2023-02-01T03:19:49;5.90;99.90
3528;DHT22;1778;47.966;7.854;2023-02-01T03:20:53;6.00;99.90
3528;DHT22;1778;47.966;7.854;2023-02-01T03:22:04;5.90;99.90
3528;DHT22;1778;47.966;7.854;2023-02-01T03:23:06;5.90;99.90
3528;DHT22;1778;47.966;7.854;2023-02-01T03:25:35;5.90;99.90
3528;DHT22;1778;47.966;7.854;2023-02-01T03:26:39;5.80;99.90
3528;DHT22;1778;47.966;7.854;2023-02-01T03:27:50;5.90;99.90
3528;DHT22;1778;47.966;7.854;2023-02-01T03:28:57;5.90;99.90
3528;DHT22;1778;47.966;7.854;2023-02-01T03:30:06;5.90;99.90
3528;DHT22;1778;47.966;7.854;2023-02-01T03:31:09;5.90;99.90
3528;DHT22;1778;47.966;7.854;2023-02-01T03:32:11;5.80;99.90
3528;DHT22;1778;47.966;7.854;2023-02-01T03:33:20;5.90;99.90
3528;DHT22;1778;47.966;7.854;2023-02-01T03:34:23;5.90;99.90
3528;DHT22;1778;47.966;7.854;2023-02-01T03:35:33;5.90;99.90
3528;DHT22;1778;47.966;7.854;2023-02-01T03:36:48;5.80;99.90
3528;DHT22;1778;47.966;7.854;2023-02-01T03:37:54;5.80;99.90
3528;DHT22;1778;47.966;7.854;2023-02-01T03:40:06;5.80;99.90
3528;DHT22;1778;47.966;7.854;2023-02-01T03:41:20;5.80;99.90
3528;DHT22;1778;47.966;7.854;2023-02-01T03:42:38;5.80;99.90
3528;DHT22;1778;47.966;7.854;2023-02-01T03:45:20;5.70;99.90
3528;DHT22;1778;47.966;7.854;2023-02-01T03:47:23;5.80;99.90
3528;DHT22;1778;47.966;7.854;2023-02-01T03:48:05;5.80;99.90
3528;DHT22;1778;47.966;7.854;2023-02-01T03:49:10;5.80;99.90
3528;DHT22;1778;47.966;7.854;2023-02-01T03:50:18;5.70;99.90
3528;DHT22;1778;47.966;7.854;2023-02-01T03:51:23;5.70;99.90
3528;DHT22;1778;47.966;7.854;2023-02-01T03:52:43;5.70;99.90
3528;DHT22;1778;47.966;7.854;2023-02-01T03:53:49;5.70;99.90
3528;DHT22;1778;47.966;7.854;2023-02-01T03:54:52;5.70;99.90
3528;DHT22;1778;47.966;7.854;2023-02-01T03:55:54;5.60;99.90
3528;DHT22;1778;47.966;7.854;2023-02-01T03:56:59;5.60;99.90
3528;DHT22;1778;47.966;7.854;2023-02-01T03:58:16;5.60;99.90
3528;DHT22;1778;47.966;7.854;2023-02-01T03:59:19;5.60;99.90
3528;DHT22;1778;47.966;7.854;2023-02-01T04:00:25;5.60;99.90
3528;DHT22;1778;47.966;7.854;2023-02-01T04:01:30;5.60;99.90
3528;DHT22;1778;47.966;7.854;2023-02-01T04:02:33;5.60;99.90
3528;DHT22;1778;47.966;7.854;2023-02-01T04:03:34;5.60;99.90
3528;DHT22;1778;47.966;7.854;2023-02-01T04:04:37;5.60;99.90
3528;DHT22;1778;47.966;7.854;2023-02-01T04:05:39;5.50;99.90
3528;DHT22;1778;47.966;7.854;2023-02-01T04:06:42;5.50;99.90
3528;DHT22;1778;47.966;7.854;2023-02-01T04:07:44;5.50;99.90
3528;DHT22;1778;47.966;7.854;2023-02-01T04:08:45;5.50;99.90
3528;DHT22;1778;47.966;7.854;2023-02-01T04:09:47;5.50;99.90
3528;DHT22;1778;47.966;7.854;2023-02-01T04:10:49;5.50;99.90
3528;DHT22;1778;47.966;7.854;2023-02-01T04:11:50;5.50;99.90
3528;DHT22;1778;47.966;7.854;2023-02-01T04:12:52;5.50;99.90
3528;DHT22;1778;47.966;7.854;2023-02-01T04:13:53;5.50;99.90
3528;DHT22;1778;47.966;7.854;2023-02-01T04:14:55;5.50;99.90
3528;DHT22;1778;47.966;7.854;2023-02-01T04:15:56;5.50;99.90
3528;DHT22;1778;47.966;7.854;2023-02-01T04:16:58;5.50;99.90
3528;DHT22;1778;47.966;7.854;2023-02-01T04:17:59;5.40;99.90
3528;DHT22;1778;47.966;7.854;2023-02-01T04:19:01;5.40;99.90
3528;DHT22;1778;47.966;7.854;2023-02-01T04:20:03;5.40;99.90
3528;DHT22;1778;47.966;7.854;2023-02-01T04:21:05;5.40;99.90
3528;DHT22;1778;47.966;7.854;2023-02-01T04:22:07;5.40;99.90
3528;DHT22;1778;47.966;7.854;2023-02-01T04:23:09;5.40;99.90
3528;DHT22;1778;47.966;7.854;2023-02-01T04:24:11;5.40;99.90
3528;DHT22;1778;47.966;7.854;2023-02-01T04:25:12;5.30;99.90
3528;DHT22;1778;47.966;7.854;2023-02-01T04:26:14;5.40;99.90
3528;DHT22;1778;47.966;7.854;2023-02-01T04:27:17;5.40;99.90
3528;DHT22;1778;47.966;7.854;2023-02-01T04:28:19;5.40;99.90
3528;DHT22;1778;47.966;7.854;2023-02-01T04:29:21;5.40;99.90
3528;DHT22;1778;47.966;7.854;2023-02-01T04:30:22;5.40;99.90
3528;DHT22;1778;47.966;7.854;2023-02-01T04:31:25;5.40;99.90
3528;DHT22;1778;47.966;7.854;2023-02-01T04:32:27;5.40;99.90
3528;DHT22;1778;47.966;7.854;2023-02-01T04:33:29;5.40;99.90
3528;DHT22;1778;47.966;7.854;2023-02-01T04:34:31;5.40;99.90
3528;DHT22;1778;47.966;7.854;2023-02-01T04:35:32;5.40;99.90
3528;DHT22;1778;47.966;7.854;2023-02-01T04:36:34;5.40;99.90
3528;DHT22;1778;47.966;7.854;2023-02-01T04:37:36;5.40;99.90
3528;DHT22;1778;47.966;7.854;2023-02-01T04:38:37;5.30;99.90
3528;DHT22;1778;47.966;7.854;2023-02-01T04:39:39;5.30;99.90
3528;DHT22;1778;47.966;7.854;2023-02-01T04:40:40;5.30;99.90
3528;DHT22;1778;47.966;7.854;2023-02-01T04:41:42;5.30;99.90
3528;DHT22;1778;47.966;7.854;2023-02-01T04:42:44;5.20;99.90
3528;DHT22;1778;47.966;7.854;2023-02-01T04:43:46;5.20;99.90
3528;DHT22;1778;47.966;7.854;2023-02-01T04:44:48;5.20;99.90
3528;DHT22;1778;47.966;7.854;2023-02-01T04:45:50;5.10;99.90
3528;DHT22;1778;47.966;7.854;2023-02-01T04:46:52;5.10;99.90
3528;DHT22;1778;47.966;7.854;2023-02-01T04:47:53;5.10;99.90
3528;DHT22;1778;47.966;7.854;2023-02-01T04:48:55;5.10;99.90
3528;DHT22;1778;47.966;7.854;2023-02-01T04:49:56;5.10;99.90
3528;DHT22;1778;47.966;7.854;2023-02-01T04:50:58;5.10;99.90
3528;DHT22;1778;47.966;7.854;2023-02-01T04:51:59;5.10;99.90
3528;DHT22;1778;47.966;7.854;2023-02-01T04:53:01;5.10;99.90
3528;DHT22;1778;47.966;7.854;2023-02-01T04:54:03;5.10;99.90
3528;DHT22;1778;47.966;7.854;2023-02-01T04:55:04;5.10;99.90
3528;DHT22;1778;47.966;7.854;2023-02-01T04:56:06;5.10;99.90
3528;DHT22;1778;47.966;7.854;2023-02-01T04:57:08;5.10;99.90
3528;DHT22;1778;47.966;7.854;2023-02-01T04:58:10;5.10;99.90
3528;DHT22;1778;47.966;7.854;2023-02-01T04:59:12;5.10;99.90
3528;DHT22;1778;47.966;7.854;2023-02-01T05:00:14;5.10;99.90
3528;DHT22;1778;47.966;7.854;2023-02-01T05:01:15;5.10;99.90
3528;DHT22;1778;47.966;7.854;2023-02-01T05:02:17;5.10;99.90
3528;DHT22;1778;47.966;7.854;2023-02-01T05:03:18;5.10;99.90
3528;DHT22;1778;47.966;7.854;2023-02-01T05:04:20;5.10;99.90
3528;DHT22;1778;47.966;7.854;2023-02-01T05:05:22;5.10;99.90
3528;DHT22;1778;47.966;7.854;2023-02-01T05:06:23;5.10;99.90
3528;DHT22;1778;47.966;7.854;2023-02-01T05:07:25;5.10;99.90
3528;DHT22;1778;47.966;7.854;2023-02-01T05:08:27;5.20;99.90
3528;DHT22;1778;47.966;7.854;2023-02-01T05:09:30;5.20;99.90
3528;DHT22;1778;47.966;7.854;2023-02-01T05:10:31;5.20;99.90
3528;DHT22;1778;47.966;7.854;2023-02-01T05:11:33;5.20;99.90
3528;DHT22;1778;47.966;7.854;2023-02-01T05:12:53;5.20;99.90
3528;DHT22;1778;47.966;7.854;2023-02-01T05:14:13;5.30;99.90
3528;DHT22;1778;47.966;7.854;2023-02-01T05:15:14;5.30;99.90
3528;DHT22;1778;47.966;7.854;2023-02-01T05:16:16;5.30;99.90
3528;DHT22;1778;47.966;7.854;2023-02-01T05:17:18;5.20;99.90
3528;DHT22;1778;47.966;7.854;2023-02-01T05:18:19;5.30;99.90
3528;DHT22;1778;47.966;7.854;2023-02-01T05:19:21;5.30;99.90
3528;DHT22;1778;47.966;7.854;2023-02-01T05:20:22;5.30;99.90
3528;DHT22;1778;47.966;7.854;2023-02-01T05:21:24;5.20;99.90
3528;DHT22;1778;47.966;7.854;2023-02-01T05:22:26;5.20;99.90
3528;DHT22;1778;47.966;7.854;2023-02-01T05:23:27;5.20;99.90
3528;DHT22;1778;47.966;7.854;2023-02-01T05:24:29;5.20;99.90
3528;DHT22;1778;47.966;7.854;2023-02-01T05:25:31;5.30;99.90
3528;DHT22;1778;47.966;7.854;2023-02-01T05:26:33;5.20;99.90
3528;DHT22;1778;47.966;7.854;2023-02-01T05:27:35;5.20;99.90
3528;DHT22;1778;47.966;7.854;2023-02-01T05:28:36;5.20;99.90
3528;DHT22;1778;47.966;7.854;2023-02-01T05:29:38;5.20;99.90
3528;DHT22;1778;47.966;7.854;2023-02-01T05:30:39;5.20;99.90
3528;DHT22;1778;47.966;7.854;2023-02-01T05:31:44;5.20;99.90
3528;DHT22;1778;47.966;7.854;2023-02-01T05:32:52;5.20;99.90
3528;DHT22;1778;47.966;7.854;2023-02-01T05:33:54;5.20;99.90
3528;DHT22;1778;47.966;7.854;2023-02-01T05:34:55;5.20;99.90
3528;DHT22;1778;47.966;7.854;2023-02-01T05:35:57;5.20;99.90
3528;DHT22;1778;47.966;7.854;2023-02-01T05:36:59;5.20;99.90
3528;DHT22;1778;47.966;7.854;2023-02-01T05:38:00;5.20;99.90
3528;DHT22;1778;47.966;7.854;2023-02-01T05:39:02;5.20;99.90
3528;DHT22;1778;47.966;7.854;2023-02-01T05:40:04;5.20;99.90
3528;DHT22;1778;47.966;7.854;2023-02-01T05:41:06;5.20;99.90
3528;DHT22;1778;47.966;7.854;2023-02-01T05:42:07;5.20;99.90
3528;DHT22;1778;47.966;7.854;2023-02-01T05:43:09;5.20;99.90
3528;DHT22;1778;47.966;7.854;2023-02-01T05:44:11;5.20;99.90
3528;DHT22;1778;47.966;7.854;2023-02-01T05:45:12;5.20;99.90
3528;DHT22;1778;47.966;7.854;2023-02-01T05:46:14;5.20;99.90
3528;DHT22;1778;47.966;7.854;2023-02-01T05:47:16;5.20;99.90
3528;DHT22;1778;47.966;7.854;2023-02-01T05:48:18;5.20;99.90
3528;DHT22;1778;47.966;7.854;2023-02-01T05:49:19;5.20;99.90
3528;DHT22;1778;47.966;7.854;2023-02-01T05:50:21;5.20;99.90
3528;DHT22;1778;47.966;7.854;2023-02-01T05:51:30;5.20;99.90
3528;DHT22;1778;47.966;7.854;2023-02-01T05:52:32;5.20;99.90
3528;DHT22;1778;47.966;7.854;2023-02-01T05:53:33;5.20;99.90
3528;DHT22;1778;47.966;7.854;2023-02-01T05:54:35;5.20;99.90
3528;DHT22;1778;47.966;7.854;2023-02-01T05:55:36;5.10;99.90
3528;DHT22;1778;47.966;7.854;2023-02-01T05:56:38;5.20;99.90
3528;DHT22;1778;47.966;7.854;2023-02-01T05:57:39;5.20;99.90
3528;DHT22;1778;47.966;7.854;2023-02-01T05:58:41;5.10;99.90
3528;DHT22;1778;47.966;7.854;2023-02-01T05:59:42;5.10;99.90
3528;DHT22;1778;47.966;7.854;2023-02-01T06:00:46;5.10;99.90
3528;DHT22;1778;47.966;7.854;2023-02-01T06:01:47;5.10;99.90
3528;DHT22;1778;47.966;7.854;2023-02-01T06:02:48;5.20;99.90
3528;DHT22;1778;47.966;7.854;2023-02-01T06:03:50;5.10;99.90
3528;DHT22;1778;47.966;7.854;2023-02-01T06:04:52;5.10;99.90
3528;DHT22;1778;47.966;7.854;2023-02-01T06:05:53;5.10;99.90
3528;DHT22;1778;47.966;7.854;2023-02-01T06:06:54;5.10;99.90
3528;DHT22;1778;47.966;7.854;2023-02-01T06:07:57;5.10;99.90
3528;DHT22;1778;47.966;7.854;2023-02-01T06:09:00;5.10;99.90
3528;DHT22;1778;47.966;7.854;2023-02-01T06:10:02;5.20;99.90
3528;DHT22;1778;47.966;7.854;2023-02-01T06:11:04;5.20;99.90
3528;DHT22;1778;47.966;7.854;2023-02-01T06:12:06;5.20;99.90
3528;DHT22;1778;47.966;7.854;2023-02-01T06:13:08;5.20;99.90
3528;DHT22;1778;47.966;7.854;2023-02-01T06:14:10;5.20;99.90
3528;DHT22;1778;47.966;7.854;2023-02-01T06:15:12;5.20;99.90
3528;DHT22;1778;47.966;7.854;2023-02-01T06:16:14;5.20;99.90
3528;DHT22;1778;47.966;7.854;2023-02-01T06:17:17;5.20;99.90
3528;DHT22;1778;47.966;7.854;2023-02-01T06:18:18;5.20;99.90
3528;DHT22;1778;47.966;7.854;2023-02-01T06:19:21;5.20;99.90
3528;DHT22;1778;47.966;7.854;2023-02-01T06:20:23;5.20;99.90
3528;DHT22;1778;47.966;7.854;2023-02-01T06:21:25;5.30;99.90
3528;DHT22;1778;47.966;7.854;2023-02-01T06:22:26;5.20;99.90
3528;DHT22;1778;47.966;7.854;2023-02-01T06:23:29;5.20;99.90
3528;DHT22;1778;47.966;7.854;2023-02-01T06:24:31;5.30;99.90
3528;DHT22;1778;47.966;7.854;2023-02-01T06:25:32;5.30;99.90
3528;DHT22;1778;47.966;7.854;2023-02-01T06:26:34;5.30;99.90
3528;DHT22;1778;47.966;7.854;2023-02-01T06:27:35;5.20;99.90
3528;DHT22;1778;47.966;7.854;2023-02-01T06:28:37;5.20;99.90
3528;DHT22;1778;47.966;7.854;2023-02-01T06:29:40;5.20;99.90
3528;DHT22;1778;47.966;7.854;2023-02-01T06:30:42;5.20;99.90
3528;DHT22;1778;47.966;7.854;2023-02-01T06:31:48;5.20;99.90
3528;DHT22;1778;47.966;7.854;2023-02-01T06:32:51;5.20;99.90
3528;DHT22;1778;47.966;7.854;2023-02-01T06:33:55;5.20;99.90
3528;DHT22;1778;47.966;7.854;2023-02-01T06:34:56;5.20;99.90
3528;DHT22;1778;47.966;7.854;2023-02-01T06:36:00;5.20;99.90
3528;DHT22;1778;47.966;7.854;2023-02-01T06:37:01;5.20;99.90
3528;DHT22;1778;47.966;7.854;2023-02-01T06:38:03;5.20;99.90
3528;DHT22;1778;47.966;7.854;2023-02-01T06:39:04;5.20;99.90
3528;DHT22;1778;47.966;7.854;2023-02-01T06:40:06;5.20;99.90
3528;DHT22;1778;47.966;7.854;2023-02-01T06:41:08;5.20;99.90
3528;DHT22;1778;47.966;7.854;2023-02-01T06:42:10;5.20;99.90
3528;DHT22;1778;47.966;7.854;2023-02-01T06:43:11;5.20;99.90
3528;DHT22;1778;47.966;7.854;2023-02-01T06:44:13;5.20;99.90
3528;DHT22;1778;47.966;7.854;2023-02-01T06:45:14;5.20;99.90
3528;DHT22;1778;47.966;7.854;2023-02-01T06:46:16;5.20;99.90
3528;DHT22;1778;47.966;7.854;2023-02-01T06:47:17;5.20;99.90
3528;DHT22;1778;47.966;7.854;2023-02-01T06:48:19;5.20;99.90
3528;DHT22;1778;47.966;7.854;2023-02-01T06:49:21;5.20;99.90
3528;DHT22;1778;47.966;7.854;2023-02-01T06:50:23;5.30;99.90
3528;DHT22;1778;47.966;7.854;2023-02-01T06:51:26;5.30;99.90
3528;DHT22;1778;47.966;7.854;2023-02-01T06:52:29;5.30;99.90
3528;DHT22;1778;47.966;7.854;2023-02-01T06:53:30;5.20;99.90
3528;DHT22;1778;47.966;7.854;2023-02-01T06:54:32;5.20;99.90
3528;DHT22;1778;47.966;7.854;2023-02-01T06:55:35;5.40;99.90
3528;DHT22;1778;47.966;7.854;2023-02-01T06:56:36;5.30;99.90
3528;DHT22;1778;47.966;7.854;2023-02-01T06:57:38;5.30;99.90
3528;DHT22;1778;47.966;7.854;2023-02-01T06:58:39;5.30;99.90
3528;DHT22;1778;47.966;7.854;2023-02-01T06:59:41;5.30;99.90
3528;DHT22;1778;47.966;7.854;2023-02-01T07:00:42;5.30;99.90
3528;DHT22;1778;47.966;7.854;2023-02-01T07:01:44;5.30;99.90
3528;DHT22;1778;47.966;7.854;2023-02-01T07:02:45;5.30;99.90
3528;DHT22;1778;47.966;7.854;2023-02-01T07:03:51;5.30;99.90
3528;DHT22;1778;47.966;7.854;2023-02-01T07:04:52;5.20;99.90
3528;DHT22;1778;47.966;7.854;2023-02-01T07:05:57;5.20;99.90
3528;DHT22;1778;47.966;7.854;2023-02-01T07:07:02;5.20;99.90
3528;DHT22;1778;47.966;7.854;2023-02-01T07:08:04;5.30;99.90
3528;DHT22;1778;47.966;7.854;2023-02-01T07:09:06;5.30;99.90
3528;DHT22;1778;47.966;7.854;2023-02-01T07:10:09;5.30;99.90
3528;DHT22;1778;47.966;7.854;2023-02-01T07:11:13;5.40;99.90
3528;DHT22;1778;47.966;7.854;2023-02-01T07:12:15;5.40;99.90
3528;DHT22;1778;47.966;7.854;2023-02-01T07:13:17;5.40;99.90
3528;DHT22;1778;47.966;7.854;2023-02-01T07:14:18;5.50;99.90
3528;DHT22;1778;47.966;7.854;2023-02-01T07:15:20;5.50;99.90
3528;DHT22;1778;47.966;7.854;2023-02-01T07:16:23;5.50;99.90
3528;DHT22;1778;47.966;7.854;2023-02-01T07:17:25;5.50;99.90
3528;DHT22;1778;47.966;7.854;2023-02-01T07:18:27;5.50;99.90
3528;DHT22;1778;47.966;7.854;2023-02-01T07:19:30;5.50;99.90
3528;DHT22;1778;47.966;7.854;2023-02-01T07:20:31;5.60;99.90
3528;DHT22;1778;47.966;7.854;2023-02-01T07:21:33;5.60;99.90
3528;DHT22;1778;47.966;7.854;2023-02-01T07:22:34;5.60;99.90
3528;DHT22;1778;47.966;7.854;2023-02-01T07:23:36;5.60;99.90
3528;DHT22;1778;47.966;7.854;2023-02-01T07:24:38;5.60;99.90
3528;DHT22;1778;47.966;7.854;2023-02-01T07:25:39;5.60;99.90
3528;DHT22;1778;47.966;7.854;2023-02-01T07:26:41;5.60;99.90
3528;DHT22;1778;47.966;7.854;2023-02-01T07:27:42;5.60;99.90
3528;DHT22;1778;47.966;7.854;2023-02-01T07:28:44;5.60;99.90